Time;durP1;ratioP1;P1;durP2;ratioP2;P2;SDS_P1;SDS_P2;PMS_P1;PMS_P2;Temp;Humidity;BMP_temperature;BMP_pressure;BME280_temperature;BME280_humidity;BME280_pressure;Samples;Min_cycle;Max_cycle;Signal;HPM_P1;HPM_P2
2022/12/01 00:01:37;;;;;;;35.63;21.83;;;;;;;;;;5045457;28;20219;-71
2022/12/01 00:04:04;;;;;;;30.93;19.67;;;;;;;;;;5047008;28;20207;-70
2022/12/01 00:06:31;;;;;;;22.10;16.23;;;;;;;;;;5045905;28;20203;-70
2022/12/01 00:11:45;;;;;;;20.87;14.50;;;;;;;;;;5041048;28;20202;-71
2022/12/01 00:14:12;;;;;;;16.10;12.30;;;;;;;;;;5042769;28;20207;-70
2022/12/01 00:16:39;;;;;;;18.73;13.33;;;;;;;;;;5046221;28;20213;-69
2022/12/01 00:19:07;;;;;;;17.83;13.10;;;;;;;;;;5041595;28;20219;-69
2022/12/01 00:21:34;;;;;;;15.70;12.97;;;;;;;;;;5040452;28;20287;-70
2022/12/01 00:24:01;;;;;;;18.83;12.40;;;;;;;;;;5041594;28;20204;-70
2022/12/01 00:26:29;;;;;;;16.43;12.33;;;;;;;;;;5042362;28;20227;-72
2022/12/01 00:28:57;;;;;;;17.07;12.60;;;;;;;;;;5042395;28;20202;-72
2022/12/01 00:31:25;;;;;;;17.80;12.83;;;;;;;;;;5042136;28;20217;-72
2022/12/01 00:33:52;;;;;;;17.00;12.77;;;;;;;;;;5042669;28;20204;-71
2022/12/01 00:36:19;;;;;;;15.50;12.07;;;;;;;;;;5042006;28;20417;-72
2022/12/01 00:38:46;;;;;;;16.43;12.50;;;;;;;;;;5043609;28;22371;-71
2022/12/01 00:41:14;;;;;;;17.57;12.07;;;;;;;;;;5045013;28;20213;-72
2022/12/01 00:43:41;;;;;;;16.17;11.83;;;;;;;;;;5042784;28;20203;-73
2022/12/01 00:46:09;;;;;;;16.77;12.03;;;;;;;;;;5040850;28;20211;-73
2022/12/01 00:48:36;;;;;;;15.93;11.87;;;;;;;;;;5047262;28;20207;-72
2022/12/01 00:51:04;;;;;;;14.30;10.53;;;;;;;;;;5047726;28;20200;-73
2022/12/01 00:53:31;;;;;;;14.20;11.20;;;;;;;;;;5049244;28;20203;-72
2022/12/01 00:55:58;;;;;;;14.77;11.10;;;;;;;;;;5049900;28;20213;-73
2022/12/01 00:58:26;;;;;;;14.77;11.13;;;;;;;;;;5049294;28;20414;-72
2022/12/01 01:00:57;;;;;;;14.13;10.70;;;;;;;;;;5049061;28;20207;-72
2022/12/01 01:03:26;;;;;;;14.10;10.27;;;;;;;;;;5048045;28;20207;-72
2022/12/01 01:05:53;;;;;;;15.90;11.23;;;;;;;;;;5049113;28;20199;-72
2022/12/01 01:08:20;;;;;;;13.10;10.33;;;;;;;;;;5049724;28;20199;-72
2022/12/01 01:10:48;;;;;;;12.27;10.23;;;;;;;;;;5052309;28;20204;-72
2022/12/01 01:13:16;;;;;;;14.37;10.70;;;;;;;;;;5053473;28;20207;-72
2022/12/01 01:15:43;;;;;;;13.90;10.47;;;;;;;;;;5051269;28;20203;-72
2022/12/01 01:18:12;;;;;;;12.57;9.97;;;;;;;;;;5047121;28;20219;-72
2022/12/01 01:20:40;;;;;;;12.37;9.33;;;;;;;;;;5051944;28;20223;-72
2022/12/01 01:23:07;;;;;;;13.53;10.00;;;;;;;;;;5044977;28;20211;-72
2022/12/01 01:25:34;;;;;;;11.80;9.10;;;;;;;;;;5044537;28;20215;-71
2022/12/01 01:28:02;;;;;;;15.83;10.63;;;;;;;;;;5046771;28;20231;-71
2022/12/01 01:30:29;;;;;;;14.20;10.93;;;;;;;;;;5044835;28;20214;-72
2022/12/01 01:32:56;;;;;;;15.20;10.20;;;;;;;;;;5047222;28;20203;-70
2022/12/01 01:35:23;;;;;;;11.80;8.97;;;;;;;;;;5042512;28;20246;-72
2022/12/01 01:37:52;;;;;;;12.73;9.87;;;;;;;;;;5045219;28;20203;-72
2022/12/01 01:40:19;;;;;;;11.07;8.90;;;;;;;;;;5045383;28;20710;-72
2022/12/01 01:42:46;;;;;;;12.03;9.43;;;;;;;;;;5047137;28;20199;-70
2022/12/01 01:45:20;;;;;;;11.60;9.10;;;;;;;;;;5046380;28;20208;-71
2022/12/01 01:47:49;;;;;;;9.60;8.27;;;;;;;;;;5044454;28;20249;-71
2022/12/01 01:50:19;;;;;;;11.37;9.10;;;;;;;;;;5043192;28;20203;-72
2022/12/01 01:52:47;;;;;;;9.57;8.20;;;;;;;;;;5044186;28;20195;-72
2022/12/01 01:55:16;;;;;;;12.00;8.60;;;;;;;;;;5048756;28;20203;-71
2022/12/01 01:57:44;;;;;;;10.77;9.13;;;;;;;;;;5046034;28;20206;-70
2022/12/01 02:00:12;;;;;;;10.50;8.67;;;;;;;;;;5047339;28;20209;-73
2022/12/01 02:02:43;;;;;;;10.43;8.30;;;;;;;;;;5052303;28;20255;-71
2022/12/01 02:05:12;;;;;;;11.27;8.87;;;;;;;;;;5049837;28;20210;-71
2022/12/01 02:07:40;;;;;;;9.50;7.40;;;;;;;;;;5043228;28;20207;-71
2022/12/01 02:10:09;;;;;;;9.00;7.80;;;;;;;;;;5047122;28;20209;-72
2022/12/01 02:12:51;;;;;;;9.27;7.47;;;;;;;;;;5048499;28;20206;-72
2022/12/01 02:15:22;;;;;;;8.40;7.40;;;;;;;;;;5047890;28;20218;-71
2022/12/01 02:17:55;;;;;;;9.27;7.97;;;;;;;;;;5051301;28;20207;-71
2022/12/01 02:20:37;;;;;;;9.10;7.47;;;;;;;;;;5047275;28;20200;-72
2022/12/01 02:23:31;;;;;;;8.23;7.10;;;;;;;;;;5044583;28;20333;-70
2022/12/01 02:26:07;;;;;;;9.83;7.80;;;;;;;;;;5049909;28;20215;-71
2022/12/01 02:28:43;;;;;;;8.00;7.17;;;;;;;;;;5050973;28;20203;-72
2022/12/01 02:31:15;;;;;;;8.40;6.67;;;;;;;;;;5048267;28;20211;-70
2022/12/01 02:33:44;;;;;;;8.40;6.93;;;;;;;;;;5045374;28;20582;-71
2022/12/01 02:36:15;;;;;;;7.77;6.97;;;;;;;;;;5045399;28;20464;-69
2022/12/01 02:38:46;;;;;;;8.30;6.67;;;;;;;;;;5048708;28;20219;-72
2022/12/01 02:41:18;;;;;;;7.50;6.70;;;;;;;;;;5044377;28;20210;-71
2022/12/01 02:43:49;;;;;;;8.03;6.37;;;;;;;;;;5048864;28;20203;-71
2022/12/01 02:46:22;;;;;;;7.77;6.60;;;;;;;;;;5043024;28;20208;-69
2022/12/01 02:48:51;;;;;;;8.53;6.77;;;;;;;;;;5044552;28;20201;-70
2022/12/01 02:51:21;;;;;;;7.97;6.73;;;;;;;;;;5050155;28;20212;-69
2022/12/01 02:53:48;;;;;;;7.33;6.50;;;;;;;;;;5050156;28;20208;-71
2022/12/01 02:56:15;;;;;;;7.97;7.17;;;;;;;;;;5050164;28;20235;-70
2022/12/01 02:58:43;;;;;;;8.30;6.67;;;;;;;;;;5050954;28;20223;-70
2022/12/01 03:01:17;;;;;;;7.67;6.60;;;;;;;;;;5049502;28;20277;-70
2022/12/01 03:03:59;;;;;;;11.27;7.83;;;;;;;;;;5050784;28;20199;-71
2022/12/01 03:06:34;;;;;;;7.47;6.40;;;;;;;;;;5045705;28;20211;-70
2022/12/01 03:09:06;;;;;;;8.87;6.83;;;;;;;;;;5046407;28;20207;-71
2022/12/01 03:11:36;;;;;;;8.50;6.60;;;;;;;;;;5047289;28;20231;-71
2022/12/01 03:14:09;;;;;;;7.97;6.83;;;;;;;;;;5048647;28;20210;-70
2022/12/01 03:16:39;;;;;;;7.40;6.60;;;;;;;;;;5049736;28;20206;-69
2022/12/01 03:19:08;;;;;;;8.27;6.80;;;;;;;;;;5050112;28;20219;-70
2022/12/01 03:21:39;;;;;;;8.60;7.23;;;;;;;;;;5048263;28;20211;-70
2022/12/01 03:24:09;;;;;;;9.47;7.70;;;;;;;;;;5046452;28;20204;-69
2022/12/01 03:26:38;;;;;;;8.53;6.90;;;;;;;;;;5048747;28;20266;-70
2022/12/01 03:29:06;;;;;;;7.90;6.97;;;;;;;;;;5048530;28;20200;-70
2022/12/01 03:31:36;;;;;;;8.50;7.13;;;;;;;;;;5048126;28;20195;-70
2022/12/01 03:34:05;;;;;;;8.10;6.80;;;;;;;;;;5049489;28;20298;-70
2022/12/01 03:36:35;;;;;;;8.03;6.87;;;;;;;;;;5047518;28;20222;-70
2022/12/01 03:39:07;;;;;;;7.57;6.67;;;;;;;;;;5050255;28;20219;-70
2022/12/01 03:41:36;;;;;;;7.80;6.80;;;;;;;;;;5053240;28;20218;-70
2022/12/01 03:44:06;;;;;;;8.83;7.13;;;;;;;;;;5047385;28;20218;-72
2022/12/01 03:46:39;;;;;;;7.70;6.23;;;;;;;;;;5048535;28;20203;-70
2022/12/01 03:49:07;;;;;;;7.63;6.77;;;;;;;;;;5047301;28;20211;-70
2022/12/01 03:51:42;;;;;;;7.90;6.57;;;;;;;;;;5047185;28;20207;-70
2022/12/01 03:54:12;;;;;;;7.67;6.83;;;;;;;;;;5041534;28;20213;-70
2022/12/01 03:56:42;;;;;;;7.87;6.30;;;;;;;;;;5049660;28;20260;-70
2022/12/01 03:59:10;;;;;;;8.57;6.70;;;;;;;;;;5041949;28;20222;-70
2022/12/01 04:01:37;;;;;;;8.97;6.93;;;;;;;;;;5048510;28;20398;-70
2022/12/01 04:04:06;;;;;;;8.57;6.47;;;;;;;;;;5046170;28;20195;-71
2022/12/01 04:06:33;;;;;;;9.07;7.07;;;;;;;;;;5047630;28;20203;-70
2022/12/01 04:09:00;;;;;;;7.67;6.53;;;;;;;;;;5048275;28;20195;-70
2022/12/01 04:14:14;;;;;;;8.27;7.07;;;;;;;;;;5049401;28;20226;-70
2022/12/01 04:16:41;;;;;;;8.00;6.70;;;;;;;;;;5045861;28;20207;-70
2022/12/01 04:19:08;;;;;;;7.77;6.33;;;;;;;;;;5049534;28;20226;-71
2022/12/01 04:21:35;;;;;;;8.13;7.30;;;;;;;;;;5050337;28;20218;-70
2022/12/01 04:24:02;;;;;;;8.73;7.00;;;;;;;;;;5050024;28;20210;-70
2022/12/01 04:26:32;;;;;;;7.50;6.70;;;;;;;;;;5049440;28;20232;-71
2022/12/01 04:28:59;;;;;;;8.33;6.27;;;;;;;;;;5047661;28;20319;-71
2022/12/01 04:31:26;;;;;;;7.97;6.63;;;;;;;;;;5045695;28;20214;-72
2022/12/01 04:33:54;;;;;;;8.20;6.47;;;;;;;;;;5048375;28;20209;-71
2022/12/01 04:36:22;;;;;;;7.80;6.63;;;;;;;;;;5047553;28;20215;-71
2022/12/01 04:38:49;;;;;;;7.17;6.40;;;;;;;;;;5047922;28;20204;-70
2022/12/01 04:41:16;;;;;;;7.70;6.50;;;;;;;;;;5050234;28;20213;-71
2022/12/01 04:43:45;;;;;;;8.17;6.80;;;;;;;;;;5050343;28;20203;-70
2022/12/01 04:46:12;;;;;;;7.53;6.53;;;;;;;;;;5045574;28;20199;-70
2022/12/01 04:48:40;;;;;;;8.27;6.67;;;;;;;;;;5044752;28;20215;-69
2022/12/01 04:51:08;;;;;;;7.83;6.30;;;;;;;;;;5053583;28;20214;-69
2022/12/01 04:53:36;;;;;;;7.03;6.03;;;;;;;;;;5052712;28;20295;-70
2022/12/01 04:56:03;;;;;;;7.37;6.13;;;;;;;;;;5050380;28;20209;-70
2022/12/01 04:58:32;;;;;;;8.97;6.03;;;;;;;;;;5053419;28;20208;-70
2022/12/01 05:01:03;;;;;;;6.33;5.63;;;;;;;;;;5049706;28;20227;-70
2022/12/01 05:03:30;;;;;;;7.33;6.00;;;;;;;;;;5050399;28;20237;-70
2022/12/01 05:06:04;;;;;;;6.47;5.87;;;;;;;;;;5052247;28;20204;-70
2022/12/01 05:08:31;;;;;;;6.63;5.60;;;;;;;;;;5052324;28;20211;-70
2022/12/01 05:10:58;;;;;;;6.63;5.90;;;;;;;;;;5050371;28;20209;-70
2022/12/01 05:13:26;;;;;;;7.03;6.13;;;;;;;;;;5048841;28;20210;-70
2022/12/01 05:15:53;;;;;;;6.57;5.93;;;;;;;;;;5051618;28;20287;-69
2022/12/01 05:18:21;;;;;;;8.37;6.60;;;;;;;;;;5051186;28;20210;-70
2022/12/01 05:20:57;;;;;;;7.10;6.30;;;;;;;;;;5049373;28;20231;-69
2022/12/01 05:23:24;;;;;;;7.10;5.83;;;;;;;;;;5046414;28;20219;-70
2022/12/01 05:25:51;;;;;;;7.10;6.10;;;;;;;;;;5051000;28;20212;-70
2022/12/01 05:28:18;;;;;;;7.07;6.20;;;;;;;;;;5049306;28;20309;-70
2022/12/01 05:30:46;;;;;;;6.83;5.70;;;;;;;;;;5047852;28;20196;-71
2022/12/01 05:33:13;;;;;;;7.50;6.40;;;;;;;;;;5048460;28;20195;-71
2022/12/01 05:35:41;;;;;;;6.70;5.80;;;;;;;;;;5049379;28;20203;-69
2022/12/01 05:38:09;;;;;;;6.77;5.53;;;;;;;;;;5050583;28;20211;-70
2022/12/01 05:40:36;;;;;;;5.93;5.30;;;;;;;;;;5050597;28;20239;-71
2022/12/01 05:43:03;;;;;;;7.87;6.50;;;;;;;;;;5049314;28;20199;-71
2022/12/01 05:45:30;;;;;;;6.70;6.00;;;;;;;;;;5047444;28;20211;-69
2022/12/01 05:47:58;;;;;;;5.60;5.00;;;;;;;;;;5047943;28;20207;-70
2022/12/01 05:50:26;;;;;;;7.30;6.07;;;;;;;;;;5045925;28;20199;-70
2022/12/01 05:52:54;;;;;;;7.93;6.23;;;;;;;;;;5049592;28;20228;-70
2022/12/01 05:55:22;;;;;;;7.63;6.30;;;;;;;;;;5044798;28;20210;-70
2022/12/01 05:57:49;;;;;;;6.20;5.60;;;;;;;;;;5050099;28;20203;-70
2022/12/01 06:00:16;;;;;;;5.90;5.30;;;;;;;;;;5045669;28;20230;-70
2022/12/01 06:02:44;;;;;;;6.77;5.73;;;;;;;;;;5051628;28;20207;-71
2022/12/01 06:05:11;;;;;;;6.17;5.50;;;;;;;;;;5050644;28;20261;-70
2022/12/01 06:07:39;;;;;;;6.47;5.60;;;;;;;;;;5051199;28;20222;-69
2022/12/01 06:10:09;;;;;;;6.10;5.50;;;;;;;;;;5052453;28;20200;-70
2022/12/01 06:12:36;;;;;;;5.97;5.37;;;;;;;;;;5052101;28;20212;-69
2022/12/01 06:15:03;;;;;;;5.80;5.10;;;;;;;;;;5050734;28;20210;-71
2022/12/01 06:17:31;;;;;;;5.93;5.17;;;;;;;;;;5050911;28;20206;-71
2022/12/01 06:19:58;;;;;;;5.53;4.93;;;;;;;;;;5049936;28;20231;-70
2022/12/01 06:22:25;;;;;;;6.43;5.80;;;;;;;;;;5051754;28;20214;-70
2022/12/01 06:24:52;;;;;;;6.83;5.17;;;;;;;;;;5052556;28;20210;-70
2022/12/01 06:27:20;;;;;;;5.40;4.90;;;;;;;;;;5052937;28;20231;-70
2022/12/01 06:29:48;;;;;;;5.37;4.87;;;;;;;;;;5048960;28;20199;-70
2022/12/01 06:32:15;;;;;;;5.67;4.73;;;;;;;;;;5048995;28;20241;-72
2022/12/01 06:34:42;;;;;;;5.93;4.77;;;;;;;;;;5048752;28;20210;-72
2022/12/01 06:37:09;;;;;;;5.13;4.63;;;;;;;;;;5048046;28;20207;-69
2022/12/01 06:39:36;;;;;;;5.67;4.80;;;;;;;;;;5049993;28;20203;-70
2022/12/01 06:42:04;;;;;;;5.60;4.80;;;;;;;;;;5051119;28;20226;-70
2022/12/01 06:44:32;;;;;;;5.07;4.30;;;;;;;;;;5037443;28;20208;-71
2022/12/01 06:46:59;;;;;;;8.00;4.50;;;;;;;;;;5047794;28;20208;-71
2022/12/01 06:49:26;;;;;;;5.23;4.40;;;;;;;;;;5059248;28;20209;-70
2022/12/01 06:51:54;;;;;;;4.53;4.07;;;;;;;;;;5052712;28;20219;-70
2022/12/01 06:54:21;;;;;;;4.80;4.40;;;;;;;;;;5051737;28;20225;-71
2022/12/01 06:56:48;;;;;;;4.63;4.23;;;;;;;;;;5051180;28;20214;-70
2022/12/01 06:59:15;;;;;;;4.80;4.03;;;;;;;;;;5049630;28;20215;-70
2022/12/01 07:01:44;;;;;;;4.17;3.77;;;;;;;;;;5052136;28;20226;-71
2022/12/01 07:04:11;;;;;;;4.40;4.00;;;;;;;;;;5051585;28;20199;-69
2022/12/01 07:06:38;;;;;;;4.50;4.10;;;;;;;;;;5032617;28;20524;-72
2022/12/01 07:09:05;;;;;;;5.40;4.23;;;;;;;;;;5043309;28;20208;-71
2022/12/01 07:11:35;;;;;;;4.77;4.27;;;;;;;;;;5045726;28;20203;-71
2022/12/01 07:14:02;;;;;;;4.37;3.83;;;;;;;;;;5049864;28;20199;-71
2022/12/01 07:16:29;;;;;;;4.33;3.93;;;;;;;;;;5049004;28;20211;-71
2022/12/01 07:18:58;;;;;;;4.77;4.37;;;;;;;;;;5048830;28;20207;-71
2022/12/01 07:21:25;;;;;;;4.27;3.87;;;;;;;;;;5051794;28;20238;-71
2022/12/01 07:23:53;;;;;;;6.03;3.87;;;;;;;;;;5051379;28;20216;-70
2022/12/01 07:26:20;;;;;;;5.73;3.77;;;;;;;;;;5049667;28;20223;-69
2022/12/01 07:28:47;;;;;;;4.70;4.20;;;;;;;;;;5050731;28;20207;-70
2022/12/01 07:31:15;;;;;;;5.60;4.20;;;;;;;;;;5046157;28;20199;-69
2022/12/01 07:33:42;;;;;;;4.20;3.80;;;;;;;;;;5042430;28;20196;-71
2022/12/01 07:36:12;;;;;;;3.80;3.40;;;;;;;;;;5046696;28;20199;-70
2022/12/01 07:38:40;;;;;;;4.10;3.70;;;;;;;;;;5047031;28;20213;-69
2022/12/01 07:41:07;;;;;;;4.07;3.63;;;;;;;;;;5048175;28;20223;-71
2022/12/01 07:43:35;;;;;;;4.40;4.00;;;;;;;;;;5047216;28;20217;-71
2022/12/01 07:46:07;;;;;;;3.93;3.43;;;;;;;;;;5048638;28;20218;-71
2022/12/01 07:48:34;;;;;;;4.53;4.03;;;;;;;;;;5048985;28;20207;-71
2022/12/01 07:51:01;;;;;;;4.43;3.90;;;;;;;;;;5046189;28;20210;-74
2022/12/01 07:53:30;;;;;;;4.97;4.33;;;;;;;;;;5049424;28;20206;-72
2022/12/01 07:55:58;;;;;;;5.20;4.70;;;;;;;;;;5049646;28;20199;-71
2022/12/01 07:58:25;;;;;;;5.47;4.97;;;;;;;;;;5049915;28;20203;-71
2022/12/01 08:00:52;;;;;;;6.33;4.57;;;;;;;;;;5046200;28;20226;-72
2022/12/01 08:03:20;;;;;;;5.97;4.90;;;;;;;;;;5044899;28;20204;-72
2022/12/01 08:05:56;;;;;;;5.07;4.57;;;;;;;;;;5048311;28;20211;-71
2022/12/01 08:08:23;;;;;;;6.87;6.03;;;;;;;;;;5050419;28;20416;-71
2022/12/01 08:10:52;;;;;;;7.43;6.67;;;;;;;;;;5048781;28;20207;-71
2022/12/01 08:13:19;;;;;;;6.80;5.57;;;;;;;;;;5043642;28;20214;-70
2022/12/01 08:15:47;;;;;;;6.87;5.80;;;;;;;;;;5046013;28;20203;-71
2022/12/01 08:18:14;;;;;;;6.50;5.43;;;;;;;;;;5049348;28;20207;-71
2022/12/01 08:20:41;;;;;;;11.43;7.30;;;;;;;;;;5050636;28;20219;-71
2022/12/01 08:23:15;;;;;;;7.50;5.90;;;;;;;;;;5047652;28;20211;-71
2022/12/01 08:25:42;;;;;;;6.20;5.13;;;;;;;;;;5046609;28;20203;-72
2022/12/01 08:28:11;;;;;;;6.77;5.40;;;;;;;;;;5049095;28;20257;-72
2022/12/01 08:30:40;;;;;;;6.33;5.70;;;;;;;;;;5050710;28;20265;-72
2022/12/01 08:33:12;;;;;;;6.57;5.83;;;;;;;;;;5033844;28;20212;-71
2022/12/01 08:35:39;;;;;;;8.23;5.73;;;;;;;;;;5050968;28;20239;-72
2022/12/01 08:38:07;;;;;;;6.10;5.50;;;;;;;;;;5047379;28;20200;-71
2022/12/01 08:40:35;;;;;;;8.47;7.37;;;;;;;;;;5050922;28;20231;-73
2022/12/01 08:43:03;;;;;;;7.70;6.73;;;;;;;;;;5046454;28;20223;-74
2022/12/01 08:45:32;;;;;;;6.40;5.60;;;;;;;;;;5050329;28;20210;-72
2022/12/01 08:47:59;;;;;;;6.30;5.47;;;;;;;;;;5042137;28;20200;-71
2022/12/01 08:50:26;;;;;;;6.17;5.27;;;;;;;;;;5050635;28;20210;-70
2022/12/01 08:52:54;;;;;;;5.93;5.33;;;;;;;;;;5045145;28;20218;-71
2022/12/01 08:55:22;;;;;;;5.93;5.33;;;;;;;;;;5048504;28;20219;-71
2022/12/01 08:57:49;;;;;;;5.97;5.37;;;;;;;;;;5050803;28;20214;-71
2022/12/01 09:00:17;;;;;;;6.57;5.70;;;;;;;;;;5047418;28;20227;-71
2022/12/01 09:02:46;;;;;;;7.60;6.80;;;;;;;;;;5049981;28;20200;-74
2022/12/01 09:05:13;;;;;;;7.10;6.40;;;;;;;;;;5046716;28;20202;-71
2022/12/01 09:07:41;;;;;;;7.33;6.47;;;;;;;;;;5047621;28;20211;-71
2022/12/01 09:10:09;;;;;;;6.53;5.70;;;;;;;;;;5050052;28;20200;-72
2022/12/01 09:12:37;;;;;;;6.50;5.47;;;;;;;;;;5050845;28;20207;-70
2022/12/01 09:15:04;;;;;;;5.80;5.20;;;;;;;;;;5038891;28;20219;-74
2022/12/01 09:17:31;;;;;;;5.13;4.63;;;;;;;;;;5047200;28;20203;-71
2022/12/01 09:20:00;;;;;;;6.03;5.37;;;;;;;;;;5048583;28;20196;-72
2022/12/01 09:22:27;;;;;;;6.80;5.47;;;;;;;;;;5042809;28;20257;-72
2022/12/01 09:24:54;;;;;;;6.13;5.53;;;;;;;;;;5040962;28;20215;-70
2022/12/01 09:27:22;;;;;;;6.47;4.90;;;;;;;;;;5041499;28;20243;-72
2022/12/01 09:29:49;;;;;;;6.40;5.53;;;;;;;;;;5051169;28;20203;-72
2022/12/01 09:32:16;;;;;;;7.03;5.50;;;;;;;;;;5045864;28;20216;-76
2022/12/01 09:34:44;;;;;;;5.40;4.90;;;;;;;;;;5044492;28;20221;-71
2022/12/01 09:37:12;;;;;;;6.40;4.80;;;;;;;;;;5053613;28;20207;-71
2022/12/01 09:39:40;;;;;;;6.17;5.33;;;;;;;;;;5046511;28;20290;-73
2022/12/01 09:42:11;;;;;;;5.80;5.03;;;;;;;;;;5040741;28;20222;-72
2022/12/01 09:44:41;;;;;;;5.40;4.90;;;;;;;;;;5039553;28;20207;-71
2022/12/01 09:47:17;;;;;;;5.63;5.13;;;;;;;;;;5042347;28;20204;-73
2022/12/01 09:49:53;;;;;;;5.27;4.77;;;;;;;;;;5049051;28;20211;-74
2022/12/01 09:52:22;;;;;;;6.60;6.00;;;;;;;;;;5043760;28;20285;-72
2022/12/01 09:54:50;;;;;;;6.77;6.07;;;;;;;;;;5046938;28;20268;-71
2022/12/01 09:57:18;;;;;;;6.30;5.70;;;;;;;;;;5050005;28;20276;-73
2022/12/01 09:59:47;;;;;;;5.33;4.83;;;;;;;;;;5052820;28;20208;-71
2022/12/01 10:02:23;;;;;;;5.87;5.27;;;;;;;;;;5050848;28;20216;-72
2022/12/01 10:04:51;;;;;;;6.23;5.30;;;;;;;;;;5043142;28;20241;-72
2022/12/01 10:07:22;;;;;;;6.87;5.40;;;;;;;;;;5050506;28;20302;-72
2022/12/01 10:09:55;;;;;;;5.73;5.20;;;;;;;;;;5049365;28;20203;-71
2022/12/01 10:12:26;;;;;;;5.73;5.13;;;;;;;;;;5043610;28;20209;-71
2022/12/01 10:14:55;;;;;;;5.80;5.30;;;;;;;;;;5049551;28;20222;-72
2022/12/01 10:17:26;;;;;;;5.40;4.83;;;;;;;;;;5045531;28;20230;-70
2022/12/01 10:19:58;;;;;;;6.97;6.30;;;;;;;;;;5051271;28;20204;-72
2022/12/01 10:22:38;;;;;;;7.53;6.13;;;;;;;;;;5051554;28;20227;-73
2022/12/01 10:25:14;;;;;;;6.53;5.83;;;;;;;;;;5048331;28;20203;-76
2022/12/01 10:27:45;;;;;;;6.77;6.07;;;;;;;;;;5050859;28;20257;-73
2022/12/01 10:30:15;;;;;;;7.10;6.20;;;;;;;;;;5049138;28;20196;-71
2022/12/01 10:32:52;;;;;;;6.80;5.60;;;;;;;;;;5048024;28;20215;-71
2022/12/01 10:35:21;;;;;;;7.37;6.03;;;;;;;;;;5050357;28;20233;-70
2022/12/01 10:37:50;;;;;;;6.73;5.97;;;;;;;;;;5046902;28;20249;-71
2022/12/01 10:40:19;;;;;;;6.67;5.80;;;;;;;;;;5046915;28;20307;-71
2022/12/01 10:42:47;;;;;;;7.53;6.47;;;;;;;;;;5042246;28;20207;-69
2022/12/01 10:45:15;;;;;;;9.00;6.47;;;;;;;;;;5047940;28;20203;-71
2022/12/01 10:47:58;;;;;;;8.50;7.00;;;;;;;;;;5048712;28;20615;-71
2022/12/01 10:50:27;;;;;;;8.10;6.93;;;;;;;;;;5045394;28;20214;-71
2022/12/01 10:52:54;;;;;;;7.57;6.73;;;;;;;;;;5045804;28;20275;-72
2022/12/01 10:55:27;;;;;;;6.37;5.77;;;;;;;;;;5046033;28;20203;-72
2022/12/01 10:57:55;;;;;;;11.43;9.00;;;;;;;;;;5048867;28;20207;-74
2022/12/01 11:00:23;;;;;;;7.80;6.57;;;;;;;;;;5031415;28;20220;-72
2022/12/01 11:02:51;;;;;;;6.73;6.03;;;;;;;;;;5050086;28;20207;-72
2022/12/01 11:05:21;;;;;;;8.40;7.20;;;;;;;;;;5045451;28;20215;-72
2022/12/01 11:07:49;;;;;;;7.43;6.63;;;;;;;;;;5050646;28;20290;-73
2022/12/01 11:10:19;;;;;;;10.17;8.73;;;;;;;;;;5047744;28;20207;-74
2022/12/01 11:12:54;;;;;;;10.53;7.93;;;;;;;;;;5047517;28;20208;-75
2022/12/01 11:15:23;;;;;;;7.80;6.33;;;;;;;;;;5049230;28;20207;-73
2022/12/01 11:17:57;;;;;;;6.73;6.13;;;;;;;;;;5043626;28;20207;-72
2022/12/01 11:20:32;;;;;;;7.57;6.77;;;;;;;;;;5049934;28;20207;-71
2022/12/01 11:23:19;;;;;;;7.13;6.43;;;;;;;;;;5047544;28;20225;-73
2022/12/01 11:25:56;;;;;;;6.90;6.20;;;;;;;;;;5048030;28;20217;-70
2022/12/01 11:28:25;;;;;;;7.07;6.37;;;;;;;;;;5047218;28;20231;-71
2022/12/01 11:30:56;;;;;;;8.83;7.93;;;;;;;;;;5052207;28;20214;-71
2022/12/01 11:33:23;;;;;;;7.50;6.50;;;;;;;;;;5045375;28;20265;-70
2022/12/01 11:35:50;;;;;;;7.90;7.10;;;;;;;;;;5042686;28;20214;-72
2022/12/01 11:38:20;;;;;;;7.20;6.50;;;;;;;;;;5051245;28;20203;-73
2022/12/01 11:40:48;;;;;;;7.03;6.33;;;;;;;;;;5051214;28;20211;-70
2022/12/01 11:43:22;;;;;;;7.70;6.27;;;;;;;;;;5049247;28;20212;-70
2022/12/01 11:45:50;;;;;;;7.70;6.87;;;;;;;;;;5051551;28;20208;-71
2022/12/01 11:48:24;;;;;;;7.90;7.07;;;;;;;;;;5046658;28;20207;-72
2022/12/01 11:51:01;;;;;;;8.30;7.00;;;;;;;;;;5048101;28;20203;-77
2022/12/01 11:53:29;;;;;;;7.43;6.53;;;;;;;;;;5040138;28;21251;-72
2022/12/01 11:56:13;;;;;;;8.27;6.53;;;;;;;;;;5038777;28;20203;-73
2022/12/01 11:58:41;;;;;;;7.13;6.40;;;;;;;;;;5055225;28;20216;-73
2022/12/01 12:01:16;;;;;;;7.50;6.70;;;;;;;;;;5053381;28;20235;-73
2022/12/01 12:03:46;;;;;;;6.77;6.07;;;;;;;;;;5047507;28;20211;-71
2022/12/01 12:06:18;;;;;;;8.17;7.00;;;;;;;;;;5041536;28;20238;-72
2022/12/01 12:08:52;;;;;;;8.10;7.30;;;;;;;;;;5050740;28;20214;-73
2022/12/01 12:11:20;;;;;;;8.97;7.50;;;;;;;;;;5049106;28;20299;-73
2022/12/01 12:14:07;;;;;;;7.57;6.77;;;;;;;;;;5050290;28;20218;-72
2022/12/01 12:16:41;;;;;;;8.57;7.20;;;;;;;;;;5052742;28;20199;-71
2022/12/01 12:19:18;;;;;;;8.17;7.30;;;;;;;;;;5050075;28;20220;-76
2022/12/01 12:21:52;;;;;;;8.43;6.80;;;;;;;;;;5048119;28;20226;-72
2022/12/01 12:24:27;;;;;;;8.63;7.73;;;;;;;;;;5050222;28;20206;-72
2022/12/01 12:27:00;;;;;;;8.50;7.60;;;;;;;;;;5043084;28;20337;-70
2022/12/01 12:29:34;;;;;;;7.77;6.93;;;;;;;;;;5036319;28;20214;-71
2022/12/01 12:32:08;;;;;;;8.90;7.50;;;;;;;;;;5043402;28;20287;-69
2022/12/01 12:34:44;;;;;;;11.87;9.03;;;;;;;;;;5050403;28;20199;-69
2022/12/01 12:37:19;;;;;;;11.10;8.27;;;;;;;;;;5041736;28;20206;-72
2022/12/01 12:39:54;;;;;;;7.73;6.93;;;;;;;;;;5049254;28;20207;-70
2022/12/01 12:42:25;;;;;;;9.10;8.13;;;;;;;;;;5049390;28;20223;-73
2022/12/01 12:48:03;;;;;;;11.40;8.63;;;;;;;;;;5046668;28;20830;-73
2022/12/01 12:50:33;;;;;;;9.53;7.30;;;;;;;;;;5041602;28;20206;-76
2022/12/01 12:53:03;;;;;;;9.53;7.57;;;;;;;;;;5046776;28;20207;-76
2022/12/01 12:55:33;;;;;;;9.63;7.73;;;;;;;;;;5049437;28;20204;-77
2022/12/01 12:58:02;;;;;;;15.60;8.70;;;;;;;;;;5047263;28;20214;-72
2022/12/01 13:00:29;;;;;;;11.83;8.27;;;;;;;;;;5047180;28;20199;-72
2022/12/01 13:02:58;;;;;;;10.50;8.07;;;;;;;;;;5047482;28;20234;-71
2022/12/01 13:05:29;;;;;;;8.53;7.40;;;;;;;;;;5049237;28;20210;-71
2022/12/01 13:07:58;;;;;;;10.27;7.20;;;;;;;;;;5046213;28;20204;-71
2022/12/01 13:10:29;;;;;;;14.83;8.83;;;;;;;;;;5047721;28;20221;-71
2022/12/01 13:12:59;;;;;;;9.23;7.27;;;;;;;;;;5050660;28;20192;-71
2022/12/01 13:15:26;;;;;;;11.93;8.83;;;;;;;;;;5046365;28;20205;-70
2022/12/01 13:17:55;;;;;;;13.23;8.53;;;;;;;;;;5051608;28;20211;-73
2022/12/01 13:20:26;;;;;;;13.93;9.77;;;;;;;;;;5053607;28;20203;-71
2022/12/01 13:22:55;;;;;;;9.10;7.80;;;;;;;;;;5049536;28;20216;-71
2022/12/01 13:25:25;;;;;;;9.03;7.30;;;;;;;;;;5046389;28;20207;-71
2022/12/01 13:27:53;;;;;;;10.50;8.07;;;;;;;;;;5050762;28;20235;-71
2022/12/01 13:30:21;;;;;;;14.13;9.07;;;;;;;;;;5041959;28;20203;-71
2022/12/01 13:32:48;;;;;;;9.90;7.90;;;;;;;;;;5046881;28;20214;-71
2022/12/01 13:35:23;;;;;;;13.80;9.00;;;;;;;;;;5044420;28;20230;-72
2022/12/01 13:37:50;;;;;;;9.37;7.87;;;;;;;;;;5050547;28;20311;-72
2022/12/01 13:40:23;;;;;;;10.20;7.93;;;;;;;;;;5051406;28;20214;-71
2022/12/01 13:42:57;;;;;;;10.93;8.60;;;;;;;;;;5049038;28;20229;-71
2022/12/01 13:45:24;;;;;;;10.53;8.23;;;;;;;;;;5048064;28;20206;-71
2022/12/01 13:47:53;;;;;;;11.17;8.27;;;;;;;;;;5049516;28;20203;-70
2022/12/01 13:50:39;;;;;;;9.57;7.90;;;;;;;;;;5045953;28;20270;-71
2022/12/01 13:53:24;;;;;;;9.73;7.90;;;;;;;;;;5046720;28;20234;-71
2022/12/01 13:56:04;;;;;;;9.37;7.60;;;;;;;;;;5049620;28;20196;-72
2022/12/01 13:58:46;;;;;;;8.53;7.63;;;;;;;;;;5048242;28;20291;-71
2022/12/01 14:01:33;;;;;;;10.93;8.27;;;;;;;;;;5050686;28;20261;-72
2022/12/01 14:04:18;;;;;;;9.10;7.80;;;;;;;;;;5049614;28;20420;-72
2022/12/01 14:06:48;;;;;;;10.53;8.33;;;;;;;;;;5049557;28;20215;-72
2022/12/01 14:09:17;;;;;;;9.80;7.73;;;;;;;;;;5054311;28;20235;-71
2022/12/01 14:11:55;;;;;;;9.63;7.70;;;;;;;;;;5052674;28;20203;-71
2022/12/01 14:14:23;;;;;;;9.33;7.77;;;;;;;;;;5052601;28;20199;-72
2022/12/01 14:16:52;;;;;;;10.27;7.63;;;;;;;;;;5051578;28;20196;-71
2022/12/01 14:19:30;;;;;;;9.83;7.93;;;;;;;;;;5052698;28;20294;-71
2022/12/01 14:21:58;;;;;;;9.90;7.40;;;;;;;;;;5052384;28;20230;-72
2022/12/01 14:24:27;;;;;;;9.00;7.30;;;;;;;;;;5047367;28;20222;-71
2022/12/01 14:26:56;;;;;;;9.43;6.93;;;;;;;;;;5051964;28;20231;-72
2022/12/01 14:29:27;;;;;;;7.77;6.97;;;;;;;;;;5048838;28;20294;-71
2022/12/01 14:32:19;;;;;;;7.73;6.40;;;;;;;;;;5045672;28;20610;-69
2022/12/01 14:34:46;;;;;;;10.90;7.07;;;;;;;;;;5047846;28;20207;-70
2022/12/01 14:37:14;;;;;;;8.50;6.60;;;;;;;;;;5048107;28;20201;-71
2022/12/01 14:39:43;;;;;;;8.20;7.20;;;;;;;;;;5047648;28;20203;-71
2022/12/01 14:44:02;;;;;;;7.23;6.47;;;;;;;;;;5046068;28;20223;-71
2022/12/01 14:45:22;;;;;;;8.13;6.63;;;;;;;;;;5047909;28;20207;-70
2022/12/01 14:47:52;;;;;;;7.13;6.43;;;;;;;;;;5046447;28;20212;-71
2022/12/01 14:50:21;;;;;;;7.63;6.83;;;;;;;;;;5047897;28;20310;-69
2022/12/01 14:52:51;;;;;;;6.73;6.03;;;;;;;;;;5047606;28;20222;-70
2022/12/01 14:55:22;;;;;;;7.30;6.50;;;;;;;;;;5042721;28;20208;-70
2022/12/01 14:57:52;;;;;;;8.10;6.23;;;;;;;;;;5052207;28;20210;-71
2022/12/01 15:00:20;;;;;;;10.63;9.03;;;;;;;;;;5052807;28;20227;-71
2022/12/01 15:02:49;;;;;;;7.67;6.63;;;;;;;;;;5051928;28;20219;-71